sensor_id;sensor_type;location;lat;lon;timestamp;P1;durP1;ratioP1;P2;durP2;ratioP2
30888;SDS011;51092;50.874;7.024;2022-08-18T00:00:05;23.98;;;21.67;;
30888;SDS011;51092;50.874;7.024;2022-08-18T00:01:12;26.08;;;23.50;;
30888;SDS011;51092;50.874;7.024;2022-08-18T00:02:16;27.25;;;24.52;;
30888;SDS011;51092;50.874;7.024;2022-08-18T00:03:20;27.45;;;22.73;;
30888;SDS011;51092;50.874;7.024;2022-08-18T00:04:22;28.02;;;25.30;;
30888;SDS011;51092;50.874;7.024;2022-08-18T00:05:24;29.55;;;26.52;;
30888;SDS011;51092;50.874;7.024;2022-08-18T00:06:26;25.50;;;22.90;;
30888;SDS011;51092;50.874;7.024;2022-08-18T00:07:30;26.27;;;23.90;;
30888;SDS011;51092;50.874;7.024;2022-08-18T00:08:33;25.95;;;23.27;;
30888;SDS011;51092;50.874;7.024;2022-08-18T00:09:36;25.92;;;23.33;;
30888;SDS011;51092;50.874;7.024;2022-08-18T00:10:39;26.02;;;23.55;;
30888;SDS011;51092;50.874;7.024;2022-08-18T00:11:42;27.10;;;24.30;;
30888;SDS011;51092;50.874;7.024;2022-08-18T00:12:46;26.55;;;22.35;;
30888;SDS011;51092;50.874;7.024;2022-08-18T00:13:48;27.13;;;24.52;;
30888;SDS011;51092;50.874;7.024;2022-08-18T00:14:50;27.75;;;24.98;;
30888;SDS011;51092;50.874;7.024;2022-08-18T00:15:54;27.80;;;25.00;;
30888;SDS011;51092;50.874;7.024;2022-08-18T00:16:55;27.35;;;24.40;;
30888;SDS011;51092;50.874;7.024;2022-08-18T00:17:58;25.88;;;23.38;;
30888;SDS011;51092;50.874;7.024;2022-08-18T00:18:59;27.00;;;24.40;;
30888;SDS011;51092;50.874;7.024;2022-08-18T00:20:02;24.80;;;22.50;;
30888;SDS011;51092;50.874;7.024;2022-08-18T00:21:05;28.58;;;25.75;;
30888;SDS011;51092;50.874;7.024;2022-08-18T00:22:08;27.58;;;24.88;;
30888;SDS011;51092;50.874;7.024;2022-08-18T00:23:11;28.73;;;25.95;;
30888;SDS011;51092;50.874;7.024;2022-08-18T00:24:14;26.50;;;23.83;;
30888;SDS011;51092;50.874;7.024;2022-08-18T00:25:16;29.25;;;26.58;;
30888;SDS011;51092;50.874;7.024;2022-08-18T00:26:20;27.45;;;24.70;;
30888;SDS011;51092;50.874;7.024;2022-08-18T00:27:22;27.50;;;24.98;;
30888;SDS011;51092;50.874;7.024;2022-08-18T00:28:28;31.23;;;28.15;;
30888;SDS011;51092;50.874;7.024;2022-08-18T00:29:30;32.15;;;29.13;;
30888;SDS011;51092;50.874;7.024;2022-08-18T00:30:32;30.90;;;27.67;;
30888;SDS011;51092;50.874;7.024;2022-08-18T00:31:34;31.88;;;28.65;;
30888;SDS011;51092;50.874;7.024;2022-08-18T00:32:37;34.22;;;30.23;;
30888;SDS011;51092;50.874;7.024;2022-08-18T00:33:41;34.17;;;30.67;;
30888;SDS011;51092;50.874;7.024;2022-08-18T00:34:44;34.65;;;30.92;;
30888;SDS011;51092;50.874;7.024;2022-08-18T00:35:45;34.97;;;31.35;;
30888;SDS011;51092;50.874;7.024;2022-08-18T00:36:48;33.42;;;30.25;;
30888;SDS011;51092;50.874;7.024;2022-08-18T00:37:50;35.28;;;31.42;;
30888;SDS011;51092;50.874;7.024;2022-08-18T00:38:52;32.63;;;29.33;;
30888;SDS011;51092;50.874;7.024;2022-08-18T00:39:54;33.22;;;30.10;;
30888;SDS011;51092;50.874;7.024;2022-08-18T00:40:58;32.55;;;29.30;;
30888;SDS011;51092;50.874;7.024;2022-08-18T00:41:59;34.00;;;30.52;;
30888;SDS011;51092;50.874;7.024;2022-08-18T00:43:14;32.78;;;28.85;;
30888;SDS011;51092;50.874;7.024;2022-08-18T00:44:20;33.13;;;29.92;;
30888;SDS011;51092;50.874;7.024;2022-08-18T00:45:24;34.70;;;31.05;;
30888;SDS011;51092;50.874;7.024;2022-08-18T00:46:30;31.08;;;27.80;;
30888;SDS011;51092;50.874;7.024;2022-08-18T00:47:35;30.00;;;26.98;;
30888;SDS011;51092;50.874;7.024;2022-08-18T00:48:36;33.67;;;29.70;;
30888;SDS011;51092;50.874;7.024;2022-08-18T00:49:39;32.10;;;28.92;;
30888;SDS011;51092;50.874;7.024;2022-08-18T00:50:44;34.97;;;31.52;;
30888;SDS011;51092;50.874;7.024;2022-08-18T00:51:50;31.65;;;28.48;;
30888;SDS011;51092;50.874;7.024;2022-08-18T00:52:53;30.35;;;27.25;;
30888;SDS011;51092;50.874;7.024;2022-08-18T00:53:59;34.22;;;30.88;;
30888;SDS011;51092;50.874;7.024;2022-08-18T00:55:03;35.47;;;31.45;;
30888;SDS011;51092;50.874;7.024;2022-08-18T00:56:07;36.95;;;32.45;;
30888;SDS011;51092;50.874;7.024;2022-08-18T00:57:12;33.08;;;29.73;;
30888;SDS011;51092;50.874;7.024;2022-08-18T00:58:17;33.03;;;29.65;;
30888;SDS011;51092;50.874;7.024;2022-08-18T00:59:25;38.78;;;32.92;;
30888;SDS011;51092;50.874;7.024;2022-08-18T01:00:32;35.70;;;31.95;;
30888;SDS011;51092;50.874;7.024;2022-08-18T01:01:34;37.72;;;32.97;;
30888;SDS011;51092;50.874;7.024;2022-08-18T01:02:38;36.15;;;32.38;;
30888;SDS011;51092;50.874;7.024;2022-08-18T01:03:42;34.40;;;30.75;;
30888;SDS011;51092;50.874;7.024;2022-08-18T01:04:53;34.57;;;31.07;;
30888;SDS011;51092;50.874;7.024;2022-08-18T01:06:00;36.88;;;32.33;;
30888;SDS011;51092;50.874;7.024;2022-08-18T01:07:09;39.35;;;33.92;;
30888;SDS011;51092;50.874;7.024;2022-08-18T01:08:13;37.85;;;34.00;;
30888;SDS011;51092;50.874;7.024;2022-08-18T01:09:17;35.83;;;32.10;;
30888;SDS011;51092;50.874;7.024;2022-08-18T01:10:20;35.83;;;32.13;;
30888;SDS011;51092;50.874;7.024;2022-08-18T01:11:24;34.95;;;31.33;;
30888;SDS011;51092;50.874;7.024;2022-08-18T01:12:26;36.58;;;32.88;;
30888;SDS011;51092;50.874;7.024;2022-08-18T01:13:29;36.03;;;32.05;;
30888;SDS011;51092;50.874;7.024;2022-08-18T01:14:35;35.28;;;31.58;;
30888;SDS011;51092;50.874;7.024;2022-08-18T01:15:38;36.97;;;33.13;;
30888;SDS011;51092;50.874;7.024;2022-08-18T01:16:40;40.67;;;36.20;;
30888;SDS011;51092;50.874;7.024;2022-08-18T01:18:03;42.08;;;37.08;;
30888;SDS011;51092;50.874;7.024;2022-08-18T01:19:25;42.78;;;36.13;;
30888;SDS011;51092;50.874;7.024;2022-08-18T01:20:48;46.42;;;38.90;;
30888;SDS011;51092;50.874;7.024;2022-08-18T01:22:18;40.70;;;36.38;;
30888;SDS011;51092;50.874;7.024;2022-08-18T01:23:25;41.97;;;37.50;;
30888;SDS011;51092;50.874;7.024;2022-08-18T01:24:29;37.35;;;33.30;;
30888;SDS011;51092;50.874;7.024;2022-08-18T01:25:53;41.63;;;37.30;;
30888;SDS011;51092;50.874;7.024;2022-08-18T01:27:02;40.55;;;36.53;;
30888;SDS011;51092;50.874;7.024;2022-08-18T01:28:04;39.92;;;36.03;;
30888;SDS011;51092;50.874;7.024;2022-08-18T01:29:06;41.83;;;37.58;;
30888;SDS011;51092;50.874;7.024;2022-08-18T01:30:13;36.88;;;33.08;;
30888;SDS011;51092;50.874;7.024;2022-08-18T01:31:31;40.17;;;33.38;;
30888;SDS011;51092;50.874;7.024;2022-08-18T01:32:39;38.30;;;34.28;;
30888;SDS011;51092;50.874;7.024;2022-08-18T01:33:42;39.53;;;35.30;;
30888;SDS011;51092;50.874;7.024;2022-08-18T01:34:44;37.28;;;33.30;;
30888;SDS011;51092;50.874;7.024;2022-08-18T01:35:48;38.20;;;33.53;;
30888;SDS011;51092;50.874;7.024;2022-08-18T01:36:49;38.05;;;33.95;;
30888;SDS011;51092;50.874;7.024;2022-08-18T01:37:54;39.15;;;32.47;;
30888;SDS011;51092;50.874;7.024;2022-08-18T01:38:57;37.05;;;33.17;;
30888;SDS011;51092;50.874;7.024;2022-08-18T01:39:59;38.13;;;34.28;;
30888;SDS011;51092;50.874;7.024;2022-08-18T01:41:04;37.70;;;33.97;;
30888;SDS011;51092;50.874;7.024;2022-08-18T01:42:07;43.13;;;35.65;;
30888;SDS011;51092;50.874;7.024;2022-08-18T01:43:08;40.00;;;35.67;;
30888;SDS011;51092;50.874;7.024;2022-08-18T01:44:10;36.95;;;33.00;;
30888;SDS011;51092;50.874;7.024;2022-08-18T01:45:13;35.22;;;31.63;;
30888;SDS011;51092;50.874;7.024;2022-08-18T01:46:18;36.55;;;32.80;;
30888;SDS011;51092;50.874;7.024;2022-08-18T01:47:21;45.92;;;41.05;;
30888;SDS011;51092;50.874;7.024;2022-08-18T01:48:23;44.38;;;39.58;;
30888;SDS011;51092;50.874;7.024;2022-08-18T01:49:25;44.25;;;39.83;;
30888;SDS011;51092;50.874;7.024;2022-08-18T01:50:29;46.28;;;40.88;;
30888;SDS011;51092;50.874;7.024;2022-08-18T01:51:33;46.17;;;41.22;;
30888;SDS011;51092;50.874;7.024;2022-08-18T01:52:38;49.35;;;44.28;;
30888;SDS011;51092;50.874;7.024;2022-08-18T01:53:40;42.50;;;38.20;;
30888;SDS011;51092;50.874;7.024;2022-08-18T01:54:44;45.20;;;40.30;;
30888;SDS011;51092;50.874;7.024;2022-08-18T01:55:46;45.95;;;41.05;;
30888;SDS011;51092;50.874;7.024;2022-08-18T01:56:48;47.95;;;42.67;;
30888;SDS011;51092;50.874;7.024;2022-08-18T01:57:53;52.45;;;43.15;;
30888;SDS011;51092;50.874;7.024;2022-08-18T01:58:56;46.47;;;41.60;;
30888;SDS011;51092;50.874;7.024;2022-08-18T01:59:57;47.50;;;42.45;;
30888;SDS011;51092;50.874;7.024;2022-08-18T02:01:01;48.03;;;42.78;;
30888;SDS011;51092;50.874;7.024;2022-08-18T02:02:04;52.40;;;46.72;;
30888;SDS011;51092;50.874;7.024;2022-08-18T02:03:08;49.67;;;44.40;;
30888;SDS011;51092;50.874;7.024;2022-08-18T02:04:12;53.20;;;47.63;;
30888;SDS011;51092;50.874;7.024;2022-08-18T02:05:17;54.40;;;46.78;;
30888;SDS011;51092;50.874;7.024;2022-08-18T02:06:30;53.47;;;47.88;;
30888;SDS011;51092;50.874;7.024;2022-08-18T02:07:34;54.88;;;49.17;;
30888;SDS011;51092;50.874;7.024;2022-08-18T02:08:38;48.97;;;43.70;;
30888;SDS011;51092;50.874;7.024;2022-08-18T02:09:44;57.15;;;51.33;;
30888;SDS011;51092;50.874;7.024;2022-08-18T02:10:45;53.47;;;47.55;;
30888;SDS011;51092;50.874;7.024;2022-08-18T02:11:47;62.10;;;53.80;;
30888;SDS011;51092;50.874;7.024;2022-08-18T02:12:48;63.13;;;55.10;;
30888;SDS011;51092;50.874;7.024;2022-08-18T02:13:50;57.15;;;50.67;;
30888;SDS011;51092;50.874;7.024;2022-08-18T02:14:52;62.17;;;54.85;;
30888;SDS011;51092;50.874;7.024;2022-08-18T02:15:55;64.13;;;54.53;;
30888;SDS011;51092;50.874;7.024;2022-08-18T02:16:57;66.82;;;56.80;;
30888;SDS011;51092;50.874;7.024;2022-08-18T02:18:00;65.72;;;56.22;;
30888;SDS011;51092;50.874;7.024;2022-08-18T02:19:01;64.93;;;55.83;;
30888;SDS011;51092;50.874;7.024;2022-08-18T02:20:04;67.65;;;55.45;;
30888;SDS011;51092;50.874;7.024;2022-08-18T02:21:08;64.25;;;56.75;;
30888;SDS011;51092;50.874;7.024;2022-08-18T02:22:18;67.93;;;56.85;;
30888;SDS011;51092;50.874;7.024;2022-08-18T02:23:20;64.72;;;54.83;;
30888;SDS011;51092;50.874;7.024;2022-08-18T02:24:22;66.90;;;55.92;;
30888;SDS011;51092;50.874;7.024;2022-08-18T02:25:24;65.30;;;58.05;;
30888;SDS011;51092;50.874;7.024;2022-08-18T02:26:26;68.55;;;57.00;;
30888;SDS011;51092;50.874;7.024;2022-08-18T02:27:27;64.13;;;57.25;;
30888;SDS011;51092;50.874;7.024;2022-08-18T02:28:30;70.75;;;58.15;;
30888;SDS011;51092;50.874;7.024;2022-08-18T02:29:31;69.97;;;62.35;;
30888;SDS011;51092;50.874;7.024;2022-08-18T02:30:33;69.53;;;59.33;;
30888;SDS011;51092;50.874;7.024;2022-08-18T02:31:36;73.20;;;61.03;;
30888;SDS011;51092;50.874;7.024;2022-08-18T02:32:38;64.80;;;56.72;;
30888;SDS011;51092;50.874;7.024;2022-08-18T02:33:40;64.88;;;55.15;;
30888;SDS011;51092;50.874;7.024;2022-08-18T02:34:43;65.85;;;56.15;;
30888;SDS011;51092;50.874;7.024;2022-08-18T02:35:46;68.57;;;57.05;;
30888;SDS011;51092;50.874;7.024;2022-08-18T02:36:54;66.85;;;57.53;;
30888;SDS011;51092;50.874;7.024;2022-08-18T02:37:57;69.82;;;56.60;;
30888;SDS011;51092;50.874;7.024;2022-08-18T02:39:00;68.25;;;59.42;;
30888;SDS011;51092;50.874;7.024;2022-08-18T02:40:02;73.45;;;59.60;;
30888;SDS011;51092;50.874;7.024;2022-08-18T02:41:07;70.63;;;59.50;;
30888;SDS011;51092;50.874;7.024;2022-08-18T02:42:10;67.50;;;59.20;;
30888;SDS011;51092;50.874;7.024;2022-08-18T02:43:14;71.47;;;59.97;;
30888;SDS011;51092;50.874;7.024;2022-08-18T02:44:17;70.68;;;61.80;;
30888;SDS011;51092;50.874;7.024;2022-08-18T02:45:19;70.50;;;61.03;;
30888;SDS011;51092;50.874;7.024;2022-08-18T02:46:22;65.28;;;54.40;;
30888;SDS011;51092;50.874;7.024;2022-08-18T02:47:25;69.88;;;58.38;;
30888;SDS011;51092;50.874;7.024;2022-08-18T02:48:27;63.83;;;55.50;;
30888;SDS011;51092;50.874;7.024;2022-08-18T02:49:33;79.22;;;65.75;;
30888;SDS011;51092;50.874;7.024;2022-08-18T02:50:36;84.57;;;67.78;;
30888;SDS011;51092;50.874;7.024;2022-08-18T02:51:45;77.57;;;66.53;;
30888;SDS011;51092;50.874;7.024;2022-08-18T02:52:47;84.00;;;67.75;;
30888;SDS011;51092;50.874;7.024;2022-08-18T02:53:50;87.53;;;67.63;;
30888;SDS011;51092;50.874;7.024;2022-08-18T02:54:51;78.72;;;62.97;;
30888;SDS011;51092;50.874;7.024;2022-08-18T02:55:54;86.63;;;71.32;;
30888;SDS011;51092;50.874;7.024;2022-08-18T02:57:06;80.82;;;68.32;;
30888;SDS011;51092;50.874;7.024;2022-08-18T02:58:10;87.45;;;68.00;;
30888;SDS011;51092;50.874;7.024;2022-08-18T02:59:13;75.97;;;64.03;;
30888;SDS011;51092;50.874;7.024;2022-08-18T03:00:17;80.70;;;66.78;;
30888;SDS011;51092;50.874;7.024;2022-08-18T03:01:19;84.75;;;67.78;;
30888;SDS011;51092;50.874;7.024;2022-08-18T03:02:23;91.90;;;72.03;;
30888;SDS011;51092;50.874;7.024;2022-08-18T03:03:25;92.75;;;72.07;;
30888;SDS011;51092;50.874;7.024;2022-08-18T03:04:28;78.35;;;65.10;;
30888;SDS011;51092;50.874;7.024;2022-08-18T03:05:30;86.78;;;69.53;;
30888;SDS011;51092;50.874;7.024;2022-08-18T03:06:33;83.85;;;67.68;;
30888;SDS011;51092;50.874;7.024;2022-08-18T03:07:36;103.30;;;79.13;;
30888;SDS011;51092;50.874;7.024;2022-08-18T03:08:38;85.47;;;70.03;;
30888;SDS011;51092;50.874;7.024;2022-08-18T03:09:40;71.80;;;62.38;;
30888;SDS011;51092;50.874;7.024;2022-08-18T03:10:43;97.38;;;78.05;;
30888;SDS011;51092;50.874;7.024;2022-08-18T03:11:46;96.00;;;77.63;;
30888;SDS011;51092;50.874;7.024;2022-08-18T03:12:50;81.35;;;67.57;;
30888;SDS011;51092;50.874;7.024;2022-08-18T03:13:56;97.18;;;73.57;;
30888;SDS011;51092;50.874;7.024;2022-08-18T03:15:03;96.22;;;75.90;;
30888;SDS011;51092;50.874;7.024;2022-08-18T03:16:05;100.85;;;77.63;;
30888;SDS011;51092;50.874;7.024;2022-08-18T03:17:08;102.10;;;78.93;;
30888;SDS011;51092;50.874;7.024;2022-08-18T03:18:12;105.97;;;79.10;;
30888;SDS011;51092;50.874;7.024;2022-08-18T03:19:16;108.45;;;79.28;;
30888;SDS011;51092;50.874;7.024;2022-08-18T03:20:21;98.75;;;79.88;;
30888;SDS011;51092;50.874;7.024;2022-08-18T03:21:28;103.22;;;79.43;;
30888;SDS011;51092;50.874;7.024;2022-08-18T03:22:31;88.28;;;70.75;;
30888;SDS011;51092;50.874;7.024;2022-08-18T03:23:33;80.55;;;66.15;;
30888;SDS011;51092;50.874;7.024;2022-08-18T03:24:34;83.07;;;66.60;;
30888;SDS011;51092;50.874;7.024;2022-08-18T03:25:41;79.65;;;64.88;;
30888;SDS011;51092;50.874;7.024;2022-08-18T03:26:44;77.85;;;64.60;;
30888;SDS011;51092;50.874;7.024;2022-08-18T03:27:47;84.78;;;63.92;;
30888;SDS011;51092;50.874;7.024;2022-08-18T03:28:51;93.72;;;72.15;;
30888;SDS011;51092;50.874;7.024;2022-08-18T03:29:54;85.15;;;64.35;;
30888;SDS011;51092;50.874;7.024;2022-08-18T03:30:57;73.88;;;63.20;;
30888;SDS011;51092;50.874;7.024;2022-08-18T03:32:05;81.43;;;65.13;;
30888;SDS011;51092;50.874;7.024;2022-08-18T03:33:09;76.90;;;61.22;;
30888;SDS011;51092;50.874;7.024;2022-08-18T03:34:10;86.72;;;68.63;;
30888;SDS011;51092;50.874;7.024;2022-08-18T03:35:14;70.10;;;59.78;;
30888;SDS011;51092;50.874;7.024;2022-08-18T03:36:20;77.35;;;62.45;;
30888;SDS011;51092;50.874;7.024;2022-08-18T03:37:26;72.63;;;61.00;;
30888;SDS011;51092;50.874;7.024;2022-08-18T03:38:29;78.32;;;63.72;;
30888;SDS011;51092;50.874;7.024;2022-08-18T03:39:31;83.90;;;65.20;;
30888;SDS011;51092;50.874;7.024;2022-08-18T03:40:32;86.40;;;69.82;;
30888;SDS011;51092;50.874;7.024;2022-08-18T03:41:35;76.10;;;62.63;;
30888;SDS011;51092;50.874;7.024;2022-08-18T03:42:38;77.80;;;64.63;;
30888;SDS011;51092;50.874;7.024;2022-08-18T03:43:42;80.82;;;65.35;;
30888;SDS011;51092;50.874;7.024;2022-08-18T03:44:45;78.93;;;65.53;;
30888;SDS011;51092;50.874;7.024;2022-08-18T03:45:47;79.45;;;66.70;;
30888;SDS011;51092;50.874;7.024;2022-08-18T03:46:50;82.65;;;68.25;;
30888;SDS011;51092;50.874;7.024;2022-08-18T03:47:53;81.75;;;68.47;;
30888;SDS011;51092;50.874;7.024;2022-08-18T03:48:55;86.72;;;69.53;;
30888;SDS011;51092;50.874;7.024;2022-08-18T03:50:00;86.47;;;69.18;;
30888;SDS011;51092;50.874;7.024;2022-08-18T03:51:02;88.30;;;72.78;;
30888;SDS011;51092;50.874;7.024;2022-08-18T03:52:06;94.53;;;75.20;;
30888;SDS011;51092;50.874;7.024;2022-08-18T03:53:08;80.93;;;67.63;;
30888;SDS011;51092;50.874;7.024;2022-08-18T03:54:11;91.00;;;73.78;;
30888;SDS011;51092;50.874;7.024;2022-08-18T03:55:16;84.15;;;71.13;;
30888;SDS011;51092;50.874;7.024;2022-08-18T03:56:19;90.38;;;71.80;;
30888;SDS011;51092;50.874;7.024;2022-08-18T03:57:23;88.50;;;69.75;;
30888;SDS011;51092;50.874;7.024;2022-08-18T03:58:25;94.35;;;73.30;;
30888;SDS011;51092;50.874;7.024;2022-08-18T03:59:28;105.35;;;81.03;;
30888;SDS011;51092;50.874;7.024;2022-08-18T04:00:36;93.32;;;75.25;;
30888;SDS011;51092;50.874;7.024;2022-08-18T04:01:38;93.07;;;72.72;;
30888;SDS011;51092;50.874;7.024;2022-08-18T04:02:43;87.50;;;72.55;;
30888;SDS011;51092;50.874;7.024;2022-08-18T04:03:44;92.28;;;75.30;;
30888;SDS011;51092;50.874;7.024;2022-08-18T04:04:48;110.60;;;83.78;;
30888;SDS011;51092;50.874;7.024;2022-08-18T04:05:50;94.82;;;75.65;;
30888;SDS011;51092;50.874;7.024;2022-08-18T04:06:54;133.30;;;89.88;;
30888;SDS011;51092;50.874;7.024;2022-08-18T04:07:58;120.45;;;86.68;;
30888;SDS011;51092;50.874;7.024;2022-08-18T04:09:01;110.25;;;86.35;;
30888;SDS011;51092;50.874;7.024;2022-08-18T04:10:05;120.45;;;87.68;;
30888;SDS011;51092;50.874;7.024;2022-08-18T04:11:08;118.05;;;89.38;;
30888;SDS011;51092;50.874;7.024;2022-08-18T04:12:10;112.90;;;84.90;;
30888;SDS011;51092;50.874;7.024;2022-08-18T04:13:14;112.03;;;82.80;;
30888;SDS011;51092;50.874;7.024;2022-08-18T04:14:16;111.60;;;80.57;;
30888;SDS011;51092;50.874;7.024;2022-08-18T04:15:20;104.82;;;79.88;;
30888;SDS011;51092;50.874;7.024;2022-08-18T04:16:22;105.82;;;85.07;;
30888;SDS011;51092;50.874;7.024;2022-08-18T04:17:25;105.03;;;80.90;;
30888;SDS011;51092;50.874;7.024;2022-08-18T04:18:27;109.40;;;81.03;;
30888;SDS011;51092;50.874;7.024;2022-08-18T04:19:31;108.97;;;82.35;;
30888;SDS011;51092;50.874;7.024;2022-08-18T04:20:34;101.93;;;77.95;;
30888;SDS011;51092;50.874;7.024;2022-08-18T04:21:37;104.90;;;76.82;;
30888;SDS011;51092;50.874;7.024;2022-08-18T04:22:41;94.57;;;71.68;;
30888;SDS011;51092;50.874;7.024;2022-08-18T04:23:45;110.60;;;78.78;;
30888;SDS011;51092;50.874;7.024;2022-08-18T04:24:47;99.38;;;73.85;;
30888;SDS011;51092;50.874;7.024;2022-08-18T04:25:54;104.70;;;80.45;;
30888;SDS011;51092;50.874;7.024;2022-08-18T04:26:57;96.07;;;76.35;;
30888;SDS011;51092;50.874;7.024;2022-08-18T04:28:01;96.65;;;73.60;;
30888;SDS011;51092;50.874;7.024;2022-08-18T04:29:04;108.03;;;79.18;;
30888;SDS011;51092;50.874;7.024;2022-08-18T04:30:07;104.88;;;77.90;;
30888;SDS011;51092;50.874;7.024;2022-08-18T04:31:11;108.90;;;76.60;;
30888;SDS011;51092;50.874;7.024;2022-08-18T04:32:15;94.90;;;75.05;;
30888;SDS011;51092;50.874;7.024;2022-08-18T04:33:18;90.55;;;72.18;;
30888;SDS011;51092;50.874;7.024;2022-08-18T04:34:20;103.57;;;78.40;;
30888;SDS011;51092;50.874;7.024;2022-08-18T04:35:22;103.85;;;76.90;;
30888;SDS011;51092;50.874;7.024;2022-08-18T04:36:24;92.93;;;69.72;;
30888;SDS011;51092;50.874;7.024;2022-08-18T04:37:27;91.32;;;70.78;;
30888;SDS011;51092;50.874;7.024;2022-08-18T04:38:32;116.00;;;82.00;;
30888;SDS011;51092;50.874;7.024;2022-08-18T04:39:34;102.15;;;79.22;;
30888;SDS011;51092;50.874;7.024;2022-08-18T04:40:36;98.32;;;77.75;;
30888;SDS011;51092;50.874;7.024;2022-08-18T04:41:39;96.07;;;76.38;;
30888;SDS011;51092;50.874;7.024;2022-08-18T04:42:43;95.60;;;77.28;;
30888;SDS011;51092;50.874;7.024;2022-08-18T04:43:46;96.13;;;74.68;;
30888;SDS011;51092;50.874;7.024;2022-08-18T04:44:49;97.28;;;76.95;;
30888;SDS011;51092;50.874;7.024;2022-08-18T04:45:52;89.70;;;73.47;;
30888;SDS011;51092;50.874;7.024;2022-08-18T04:46:53;84.32;;;68.35;;
30888;SDS011;51092;50.874;7.024;2022-08-18T04:47:57;92.63;;;72.93;;
30888;SDS011;51092;50.874;7.024;2022-08-18T04:48:59;96.20;;;73.82;;
30888;SDS011;51092;50.874;7.024;2022-08-18T04:50:01;82.63;;;70.88;;
30888;SDS011;51092;50.874;7.024;2022-08-18T04:51:06;81.85;;;67.07;;
30888;SDS011;51092;50.874;7.024;2022-08-18T04:52:10;77.97;;;65.22;;
30888;SDS011;51092;50.874;7.024;2022-08-18T04:53:30;82.50;;;68.20;;
30888;SDS011;51092;50.874;7.024;2022-08-18T04:54:47;90.40;;;72.97;;
30888;SDS011;51092;50.874;7.024;2022-08-18T04:55:49;92.35;;;74.00;;
30888;SDS011;51092;50.874;7.024;2022-08-18T04:56:53;93.82;;;75.20;;
30888;SDS011;51092;50.874;7.024;2022-08-18T04:57:55;86.38;;;70.43;;
30888;SDS011;51092;50.874;7.024;2022-08-18T04:59:00;93.57;;;72.53;;
30888;SDS011;51092;50.874;7.024;2022-08-18T05:00:04;80.63;;;67.88;;
30888;SDS011;51092;50.874;7.024;2022-08-18T05:01:08;87.90;;;71.78;;
30888;SDS011;51092;50.874;7.024;2022-08-18T05:02:10;88.68;;;73.72;;
30888;SDS011;51092;50.874;7.024;2022-08-18T05:03:15;80.45;;;64.65;;
30888;SDS011;51092;50.874;7.024;2022-08-18T05:04:17;91.38;;;73.40;;
30888;SDS011;51092;50.874;7.024;2022-08-18T05:05:19;85.63;;;68.00;;
30888;SDS011;51092;50.874;7.024;2022-08-18T05:06:22;97.05;;;74.25;;
30888;SDS011;51092;50.874;7.024;2022-08-18T05:07:26;98.00;;;74.55;;
30888;SDS011;51092;50.874;7.024;2022-08-18T05:08:28;102.63;;;78.43;;
30888;SDS011;51092;50.874;7.024;2022-08-18T05:09:31;108.63;;;78.05;;
30888;SDS011;51092;50.874;7.024;2022-08-18T05:10:32;113.20;;;79.65;;
30888;SDS011;51092;50.874;7.024;2022-08-18T05:11:36;124.10;;;82.05;;
30888;SDS011;51092;50.874;7.024;2022-08-18T05:12:39;145.18;;;87.32;;
30888;SDS011;51092;50.874;7.024;2022-08-18T05:13:42;137.32;;;83.72;;
30888;SDS011;51092;50.874;7.024;2022-08-18T05:14:44;146.70;;;88.25;;
30888;SDS011;51092;50.874;7.024;2022-08-18T05:15:51;137.65;;;85.88;;
30888;SDS011;51092;50.874;7.024;2022-08-18T05:16:53;134.07;;;84.55;;
30888;SDS011;51092;50.874;7.024;2022-08-18T05:17:59;132.30;;;82.88;;
30888;SDS011;51092;50.874;7.024;2022-08-18T05:19:02;145.18;;;86.47;;
30888;SDS011;51092;50.874;7.024;2022-08-18T05:20:05;146.77;;;92.35;;
30888;SDS011;51092;50.874;7.024;2022-08-18T05:21:08;141.70;;;90.50;;
30888;SDS011;51092;50.874;7.024;2022-08-18T05:22:14;135.80;;;86.75;;
30888;SDS011;51092;50.874;7.024;2022-08-18T05:23:19;142.23;;;85.07;;
30888;SDS011;51092;50.874;7.024;2022-08-18T05:24:22;149.60;;;90.00;;
30888;SDS011;51092;50.874;7.024;2022-08-18T05:25:25;141.45;;;87.85;;
30888;SDS011;51092;50.874;7.024;2022-08-18T05:26:27;166.88;;;95.57;;
30888;SDS011;51092;50.874;7.024;2022-08-18T05:27:31;180.82;;;98.80;;
30888;SDS011;51092;50.874;7.024;2022-08-18T05:28:35;166.00;;;93.20;;
30888;SDS011;51092;50.874;7.024;2022-08-18T05:29:36;153.15;;;85.68;;
30888;SDS011;51092;50.874;7.024;2022-08-18T05:30:38;151.40;;;85.53;;
30888;SDS011;51092;50.874;7.024;2022-08-18T05:31:40;163.50;;;91.25;;
30888;SDS011;51092;50.874;7.024;2022-08-18T05:32:43;152.50;;;88.47;;
30888;SDS011;51092;50.874;7.024;2022-08-18T05:33:46;158.75;;;89.80;;
30888;SDS011;51092;50.874;7.024;2022-08-18T05:34:51;167.63;;;91.63;;
30888;SDS011;51092;50.874;7.024;2022-08-18T05:35:59;156.38;;;89.50;;
30888;SDS011;51092;50.874;7.024;2022-08-18T05:37:10;169.73;;;96.88;;
30888;SDS011;51092;50.874;7.024;2022-08-18T05:38:25;160.18;;;89.28;;
30888;SDS011;51092;50.874;7.024;2022-08-18T05:39:38;152.82;;;86.72;;
30888;SDS011;51092;50.874;7.024;2022-08-18T05:40:54;143.85;;;80.40;;
30888;SDS011;51092;50.874;7.024;2022-08-18T05:42:04;172.45;;;92.97;;
30888;SDS011;51092;50.874;7.024;2022-08-18T05:43:09;174.63;;;94.35;;
30888;SDS011;51092;50.874;7.024;2022-08-18T05:44:14;176.02;;;93.22;;
30888;SDS011;51092;50.874;7.024;2022-08-18T05:45:19;172.43;;;92.00;;
30888;SDS011;51092;50.874;7.024;2022-08-18T05:46:23;179.48;;;94.93;;
30888;SDS011;51092;50.874;7.024;2022-08-18T05:47:34;174.05;;;90.75;;
30888;SDS011;51092;50.874;7.024;2022-08-18T05:48:36;168.35;;;90.95;;
30888;SDS011;51092;50.874;7.024;2022-08-18T05:49:39;153.55;;;86.13;;
30888;SDS011;51092;50.874;7.024;2022-08-18T05:50:45;180.85;;;96.82;;
30888;SDS011;51092;50.874;7.024;2022-08-18T05:51:48;164.05;;;93.13;;
30888;SDS011;51092;50.874;7.024;2022-08-18T05:52:54;179.50;;;93.95;;
30888;SDS011;51092;50.874;7.024;2022-08-18T05:53:58;169.60;;;95.35;;
30888;SDS011;51092;50.874;7.024;2022-08-18T05:55:20;197.40;;;98.95;;
30888;SDS011;51092;50.874;7.024;2022-08-18T05:56:45;155.30;;;87.28;;
30888;SDS011;51092;50.874;7.024;2022-08-18T05:57:49;167.55;;;92.22;;
30888;SDS011;51092;50.874;7.024;2022-08-18T05:58:54;139.43;;;85.55;;
30888;SDS011;51092;50.874;7.024;2022-08-18T05:59:57;169.75;;;92.75;;
30888;SDS011;51092;50.874;7.024;2022-08-18T06:01:01;159.90;;;89.18;;
30888;SDS011;51092;50.874;7.024;2022-08-18T06:02:07;158.25;;;91.78;;
30888;SDS011;51092;50.874;7.024;2022-08-18T06:03:17;128.80;;;82.50;;
30888;SDS011;51092;50.874;7.024;2022-08-18T06:04:25;134.25;;;80.43;;
30888;SDS011;51092;50.874;7.024;2022-08-18T06:05:35;148.45;;;85.25;;
30888;SDS011;51092;50.874;7.024;2022-08-18T06:06:46;143.73;;;84.45;;
30888;SDS011;51092;50.874;7.024;2022-08-18T06:07:50;134.57;;;79.80;;
30888;SDS011;51092;50.874;7.024;2022-08-18T06:08:57;135.90;;;80.47;;
30888;SDS011;51092;50.874;7.024;2022-08-18T06:10:06;148.10;;;86.70;;
30888;SDS011;51092;50.874;7.024;2022-08-18T06:11:10;145.98;;;82.97;;
30888;SDS011;51092;50.874;7.024;2022-08-18T06:12:14;154.07;;;88.10;;
30888;SDS011;51092;50.874;7.024;2022-08-18T06:13:22;145.57;;;85.15;;
30888;SDS011;51092;50.874;7.024;2022-08-18T06:14:24;128.20;;;77.35;;